Time;durP1;ratioP1;P1;durP2;ratioP2;P2;SDS_P1;SDS_P2;PMS_P1;PMS_P2;Temp;Humidity;BMP_temperature;BMP_pressure;BME280_temperature;BME280_humidity;BME280_pressure;Samples;Min_cycle;Max_cycle;Signal;HPM_P1;HPM_P2
2022/03/26 00:00:23;;;;;;;26.20;13.13;;;11.60;43.90;;;;;;5032992;28;20116;-73
2022/03/26 00:02:50;;;;;;;22.38;12.20;;;11.60;44.00;;;;;;5032968;28;20052;-73
2022/03/26 00:05:16;;;;;;;24.30;12.48;;;11.50;44.10;;;;;;5050895;28;20026;-73
2022/03/26 00:07:42;;;;;;;22.42;12.18;;;11.50;44.20;;;;;;5032844;28;20025;-73
2022/03/26 00:10:08;;;;;;;20.33;11.98;;;11.50;44.40;;;;;;5050856;28;20025;-73
2022/03/26 00:12:34;;;;;;;20.77;12.82;;;11.50;44.50;;;;;;5034924;28;20114;-73
2022/03/26 00:15:00;;;;;;;21.92;12.60;;;11.40;44.70;;;;;;5036598;28;20025;-72
2022/03/26 00:17:26;;;;;;;20.58;12.05;;;11.40;44.70;;;;;;5036727;28;20033;-73
2022/03/26 00:19:53;;;;;;;23.42;12.48;;;11.50;44.80;;;;;;5054723;28;20155;-73
2022/03/26 00:22:19;;;;;;;30.92;14.57;;;11.40;44.70;;;;;;5036903;28;20021;-73
2022/03/26 00:24:45;;;;;;;26.75;13.52;;;11.50;44.70;;;;;;5054596;28;20020;-73
2022/03/26 00:27:11;;;;;;;25.85;13.02;;;11.50;44.70;;;;;;5054863;28;20136;-73
2022/03/26 00:29:37;;;;;;;22.80;11.38;;;11.50;44.80;;;;;;5054962;28;20079;-73
2022/03/26 00:32:04;;;;;;;24.58;14.05;;;11.50;44.90;;;;;;5055290;28;20072;-72
2022/03/26 00:34:30;;;;;;;23.58;13.18;;;11.40;44.80;;;;;;5054508;28;20539;-72
2022/03/26 00:36:56;;;;;;;25.55;13.77;;;11.40;44.80;;;;;;5054531;28;20055;-73
2022/03/26 00:39:22;;;;;;;27.08;14.02;;;11.40;44.70;;;;;;5036441;28;20025;-73
2022/03/26 00:41:48;;;;;;;28.42;14.45;;;11.50;44.70;;;;;;5036221;28;20193;-73
2022/03/26 00:44:14;;;;;;;24.77;13.30;;;11.50;44.60;;;;;;5036380;28;20127;-73
2022/03/26 00:46:39;;;;;;;29.60;14.60;;;11.50;44.70;;;;;;5054028;28;20036;-73
2022/03/26 00:49:05;;;;;;;23.83;14.07;;;11.40;45.10;;;;;;5038607;28;20087;-73
2022/03/26 00:51:31;;;;;;;25.85;14.90;;;11.40;45.00;;;;;;5054148;28;20025;-73
2022/03/26 00:53:57;;;;;;;35.25;14.30;;;11.50;44.90;;;;;;5036465;28;20615;-73
2022/03/26 00:56:22;;;;;;;28.52;14.50;;;11.40;44.90;;;;;;5054542;28;20025;-73
2022/03/26 00:58:48;;;;;;;34.42;15.43;;;11.40;45.00;;;;;;5054294;28;20032;-73
2022/03/26 01:01:14;;;;;;;26.92;14.90;;;11.50;45.20;;;;;;5054182;28;20515;-73
2022/03/26 01:03:39;;;;;;;27.88;15.18;;;11.40;45.30;;;;;;5036628;28;20075;-72
2022/03/26 01:06:05;;;;;;;27.90;13.45;;;11.40;45.30;;;;;;5036403;28;20025;-73
2022/03/26 01:08:31;;;;;;;32.97;15.13;;;11.30;45.50;;;;;;5054718;28;20102;-73
2022/03/26 01:10:58;;;;;;;37.72;15.38;;;11.30;45.50;;;;;;5054275;28;20171;-73
2022/03/26 01:13:25;;;;;;;29.67;15.20;;;11.30;45.60;;;;;;5053801;28;20024;-73
2022/03/26 01:15:51;;;;;;;30.85;15.93;;;11.30;45.70;;;;;;5036004;28;20025;-73
2022/03/26 01:18:17;;;;;;;27.67;14.93;;;11.30;45.80;;;;;;5053918;28;20021;-73
2022/03/26 01:20:43;;;;;;;28.20;14.02;;;11.30;45.70;;;;;;5053998;28;20103;-73
2022/03/26 01:23:09;;;;;;;27.35;14.98;;;11.30;45.70;;;;;;5053421;28;20112;-73
2022/03/26 01:25:36;;;;;;;25.25;14.98;;;11.30;45.70;;;;;;5035615;28;20492;-73
2022/03/26 01:28:02;;;;;;;27.77;14.95;;;11.30;45.80;;;;;;5053509;28;20035;-73
2022/03/26 01:30:28;;;;;;;31.63;14.57;;;11.20;45.70;;;;;;5053368;28;20037;-73
2022/03/26 01:32:55;;;;;;;29.73;16.58;;;11.30;45.70;;;;;;5053395;28;20498;-73
2022/03/26 01:35:21;;;;;;;27.60;15.07;;;11.30;45.70;;;;;;5053575;28;20025;-73
2022/03/26 01:37:47;;;;;;;30.17;16.10;;;11.30;45.70;;;;;;5053142;28;20480;-73
2022/03/26 01:40:14;;;;;;;29.30;15.18;;;11.30;45.70;;;;;;5053164;28;20049;-73
2022/03/26 01:42:41;;;;;;;28.73;15.48;;;11.30;45.50;;;;;;5053187;28;20067;-73
2022/03/26 01:45:12;;;;;;;28.10;15.60;;;11.30;45.50;;;;;;5035479;28;20040;-73
2022/03/26 01:47:38;;;;;;;29.58;15.35;;;11.30;45.60;;;;;;5053149;28;20029;-73
2022/03/26 01:50:04;;;;;;;30.60;16.55;;;11.30;45.50;;;;;;5035052;28;20550;-73
2022/03/26 01:52:30;;;;;;;32.72;16.60;;;11.30;45.60;;;;;;5053172;28;20024;-73
2022/03/26 01:54:57;;;;;;;33.50;17.20;;;11.30;45.60;;;;;;5053081;28;20033;-72
2022/03/26 01:57:24;;;;;;;32.75;15.90;;;11.30;45.70;;;;;;5052866;28;20166;-72
2022/03/26 01:59:50;;;;;;;33.17;16.08;;;11.30;45.80;;;;;;5052885;28;20017;-73
2022/03/26 02:02:16;;;;;;;33.85;16.17;;;11.30;45.90;;;;;;5052995;28;20041;-73
2022/03/26 02:04:42;;;;;;;30.75;16.45;;;11.20;45.70;;;;;;5034839;28;20094;-73
2022/03/26 02:07:07;;;;;;;35.05;16.30;;;11.30;45.80;;;;;;5034919;28;20462;-73
2022/03/26 02:09:35;;;;;;;40.22;17.45;;;11.20;45.80;;;;;;5052818;28;20048;-72
2022/03/26 02:12:03;;;;;;;31.80;16.25;;;11.20;46.00;;;;;;5052550;28;20021;-73
2022/03/26 02:14:29;;;;;;;31.52;16.60;;;11.20;46.10;;;;;;5034619;28;20079;-73
2022/03/26 02:16:55;;;;;;;29.95;15.35;;;11.20;46.10;;;;;;5052606;28;20029;-72
2022/03/26 02:19:21;;;;;;;31.92;16.08;;;11.20;46.10;;;;;;5052365;28;20075;-73
2022/03/26 02:21:49;;;;;;;34.08;16.52;;;11.20;46.20;;;;;;5052369;28;20288;-73
2022/03/26 02:24:16;;;;;;;34.08;17.13;;;11.20;46.10;;;;;;5052321;28;20029;-73
2022/03/26 02:26:42;;;;;;;33.13;16.33;;;11.20;46.10;;;;;;5052655;28;20020;-73
2022/03/26 02:29:10;;;;;;;34.95;17.27;;;11.20;46.20;;;;;;5052377;28;20025;-73
2022/03/26 02:31:37;;;;;;;33.13;17.38;;;11.20;46.10;;;;;;5052137;28;20025;-73
2022/03/26 02:34:05;;;;;;;35.00;17.38;;;11.20;46.10;;;;;;5052004;28;20028;-73
2022/03/26 02:36:32;;;;;;;37.65;17.95;;;11.10;46.10;;;;;;5051431;28;20492;-73
2022/03/26 02:38:58;;;;;;;36.47;17.25;;;11.10;46.20;;;;;;5051937;28;20025;-73
2022/03/26 02:41:23;;;;;;;39.20;18.00;;;11.10;46.10;;;;;;5033805;28;20254;-73
2022/03/26 02:43:49;;;;;;;35.38;17.75;;;11.10;47.00;;;;;;5052043;28;20435;-73
2022/03/26 02:46:15;;;;;;;37.15;17.88;;;11.10;46.40;;;;;;5051998;28;20040;-73
2022/03/26 02:48:44;;;;;;;37.70;17.08;;;11.10;46.30;;;;;;5051672;28;20033;-73
2022/03/26 02:51:10;;;;;;;33.75;16.45;;;11.10;46.30;;;;;;5033980;28;20029;-73
2022/03/26 02:53:36;;;;;;;41.20;17.48;;;11.10;46.40;;;;;;5051642;28;20029;-73
2022/03/26 02:56:01;;;;;;;38.17;17.83;;;11.10;46.50;;;;;;5036042;28;20075;-73
2022/03/26 02:58:27;;;;;;;39.95;18.67;;;11.10;46.50;;;;;;5033611;28;20034;-73
2022/03/26 03:00:53;;;;;;;40.00;18.25;;;11.10;46.50;;;;;;5033962;28;20132;-74
2022/03/26 03:03:19;;;;;;;38.22;17.58;;;11.10;46.60;;;;;;5034041;28;20029;-73
2022/03/26 03:05:48;;;;;;;37.42;18.83;;;11.10;46.70;;;;;;5033880;28;20031;-73
2022/03/26 03:08:14;;;;;;;36.28;18.55;;;11.10;46.70;;;;;;5033761;28;20051;-73
2022/03/26 03:10:44;;;;;;;39.40;17.90;;;11.00;46.80;;;;;;5033423;28;20453;-72
2022/03/26 03:13:11;;;;;;;40.67;19.67;;;11.00;46.80;;;;;;5032965;28;20029;-72
2022/03/26 03:15:37;;;;;;;47.17;19.27;;;11.00;46.70;;;;;;5051454;28;20096;-73
2022/03/26 03:18:04;;;;;;;42.72;19.48;;;11.00;46.90;;;;;;5033594;28;20116;-72
2022/03/26 03:20:30;;;;;;;39.90;18.35;;;11.00;46.90;;;;;;5033530;28;20112;-73
2022/03/26 03:22:59;;;;;;;37.30;18.83;;;11.00;46.90;;;;;;5051269;28;20056;-72
2022/03/26 03:25:26;;;;;;;42.08;19.10;;;11.00;47.00;;;;;;5051303;28;20110;-72
2022/03/26 03:27:52;;;;;;;38.88;17.92;;;10.90;46.90;;;;;;5033491;28;20463;-72
2022/03/26 03:30:18;;;;;;;35.05;18.02;;;10.90;47.00;;;;;;5051321;28;20052;-72
2022/03/26 03:32:44;;;;;;;38.42;19.52;;;10.90;47.10;;;;;;5050984;28;20396;-72
2022/03/26 03:35:10;;;;;;;38.63;18.33;;;10.90;47.10;;;;;;5051295;28;20021;-73
2022/03/26 03:37:38;;;;;;;36.83;18.85;;;10.90;47.00;;;;;;5051071;28;20116;-72
2022/03/26 03:40:04;;;;;;;42.90;18.02;;;11.00;47.00;;;;;;5051001;28;20032;-72
2022/03/26 03:42:31;;;;;;;45.85;19.77;;;11.00;47.10;;;;;;5050756;28;20412;-72
2022/03/26 03:44:57;;;;;;;37.53;18.63;;;10.90;47.10;;;;;;5051178;28;20029;-72
2022/03/26 03:47:23;;;;;;;42.95;19.45;;;10.90;47.10;;;;;;5054433;28;20032;-72
2022/03/26 03:49:49;;;;;;;40.55;19.45;;;10.90;47.00;;;;;;5057472;28;20087;-73
2022/03/26 03:52:16;;;;;;;38.67;18.20;;;11.00;46.90;;;;;;5057759;28;20025;-72
2022/03/26 03:54:41;;;;;;;41.17;19.33;;;10.90;46.80;;;;;;5039526;28;20021;-72
2022/03/26 03:57:07;;;;;;;41.58;19.25;;;11.00;46.80;;;;;;5057944;28;20025;-72
2022/03/26 03:59:33;;;;;;;35.40;18.00;;;11.00;46.80;;;;;;5058481;28;20027;-72
2022/03/26 04:01:58;;;;;;;37.92;17.88;;;10.90;46.80;;;;;;5039741;28;20067;-72
2022/03/26 04:04:24;;;;;;;37.28;17.63;;;11.00;46.90;;;;;;5040093;28;20033;-72
2022/03/26 04:06:50;;;;;;;40.90;18.75;;;11.00;46.90;;;;;;5058210;28;20360;-72
2022/03/26 04:09:16;;;;;;;39.70;17.63;;;11.00;46.80;;;;;;5039419;28;20037;-72
2022/03/26 04:11:41;;;;;;;37.40;18.42;;;10.90;46.70;;;;;;5057577;28;20029;-72
2022/03/26 04:14:07;;;;;;;40.90;17.77;;;10.90;46.90;;;;;;5057584;28;20056;-72
2022/03/26 04:16:33;;;;;;;37.88;17.52;;;10.90;46.90;;;;;;5057334;28;20032;-72
2022/03/26 04:18:59;;;;;;;38.15;17.50;;;10.90;46.80;;;;;;5057183;28;20052;-72
2022/03/26 04:21:25;;;;;;;32.60;17.48;;;10.90;46.70;;;;;;5039612;28;20464;-72
2022/03/26 04:23:51;;;;;;;36.25;16.08;;;11.00;46.30;;;;;;5057390;28;20083;-73
2022/03/26 04:26:17;;;;;;;33.10;16.45;;;11.00;46.20;;;;;;5057321;28;20056;-72
2022/03/26 04:28:43;;;;;;;41.55;18.10;;;11.00;46.00;;;;;;5057241;28;20059;-72
2022/03/26 04:31:09;;;;;;;38.83;17.55;;;11.10;46.10;;;;;;5057190;28;20436;-72
2022/03/26 04:33:35;;;;;;;36.72;17.45;;;11.00;46.30;;;;;;5039115;28;20400;-73
2022/03/26 04:36:02;;;;;;;34.72;16.95;;;11.00;46.10;;;;;;5039531;28;20083;-72
2022/03/26 04:38:28;;;;;;;37.22;17.58;;;11.00;45.90;;;;;;5057045;28;20032;-72
2022/03/26 04:40:53;;;;;;;37.90;18.25;;;11.00;46.00;;;;;;5038906;28;20045;-72
2022/03/26 04:43:21;;;;;;;37.78;16.88;;;11.00;46.10;;;;;;5039417;28;20037;-72
2022/03/26 04:45:46;;;;;;;30.77;16.42;;;11.00;46.30;;;;;;5039284;28;20031;-72
2022/03/26 04:48:13;;;;;;;37.38;17.10;;;11.00;46.40;;;;;;5057030;28;20099;-72
2022/03/26 04:50:39;;;;;;;30.38;16.35;;;11.00;46.50;;;;;;5039256;28;20079;-72
2022/03/26 04:53:05;;;;;;;34.63;16.65;;;10.90;46.50;;;;;;5057069;28;20033;-72
2022/03/26 04:55:31;;;;;;;38.95;17.33;;;10.90;46.70;;;;;;5057050;28;20025;-72
2022/03/26 04:57:57;;;;;;;39.83;16.73;;;10.90;46.80;;;;;;5056086;28;20029;-72
2022/03/26 05:00:22;;;;;;;35.97;16.42;;;10.90;46.80;;;;;;5035343;28;20024;-73
2022/03/26 05:02:48;;;;;;;36.67;16.88;;;10.90;46.80;;;;;;5061000;28;20032;-72
2022/03/26 05:05:15;;;;;;;33.70;16.65;;;10.90;46.70;;;;;;5074024;28;20510;-73
2022/03/26 05:07:47;;;;;;;39.15;17.40;;;10.90;46.80;;;;;;5055730;28;20056;-72
2022/03/26 05:10:22;;;;;;;37.97;17.98;;;10.90;47.00;;;;;;5055812;28;20028;-73
2022/03/26 05:12:49;;;;;;;38.17;18.13;;;10.90;47.00;;;;;;5073667;28;20023;-73
2022/03/26 05:15:16;;;;;;;42.42;17.27;;;10.80;47.10;;;;;;5055695;28;20560;-72
2022/03/26 05:17:41;;;;;;;39.13;17.08;;;10.80;47.30;;;;;;5073319;28;20025;-72
2022/03/26 05:20:08;;;;;;;32.78;15.77;;;10.80;47.40;;;;;;5053660;28;20024;-72
2022/03/26 05:22:35;;;;;;;36.70;16.67;;;10.80;47.50;;;;;;5053719;28;20013;-72
2022/03/26 05:25:01;;;;;;;37.05;16.83;;;10.80;47.50;;;;;;5053423;28;20025;-72
2022/03/26 05:27:27;;;;;;;34.10;16.13;;;10.80;47.60;;;;;;5053295;28;20484;-73
2022/03/26 05:29:54;;;;;;;35.40;16.05;;;10.80;47.70;;;;;;5035391;28;20036;-73
2022/03/26 05:32:19;;;;;;;37.90;17.45;;;10.80;47.70;;;;;;5035304;28;20335;-72
2022/03/26 05:34:45;;;;;;;30.27;16.42;;;10.80;47.60;;;;;;5053253;28;20075;-73
2022/03/26 05:37:11;;;;;;;28.80;16.20;;;10.80;47.60;;;;;;5053316;28;20053;-73
2022/03/26 05:39:38;;;;;;;34.85;16.63;;;10.80;47.80;;;;;;5052894;28;20079;-73
2022/03/26 05:42:04;;;;;;;35.17;15.95;;;10.80;47.90;;;;;;5053164;28;20406;-73
2022/03/26 05:44:30;;;;;;;32.47;16.30;;;10.90;47.80;;;;;;5052957;28;20488;-73
2022/03/26 05:46:56;;;;;;;30.48;14.85;;;10.90;47.70;;;;;;5052943;28;20035;-72
2022/03/26 05:49:21;;;;;;;33.05;16.15;;;11.00;48.30;;;;;;5052869;28;20112;-72
2022/03/26 05:51:48;;;;;;;31.25;15.43;;;11.00;47.50;;;;;;5052954;28;20507;-73
2022/03/26 05:54:14;;;;;;;34.13;15.68;;;11.10;47.30;;;;;;5034911;28;20025;-72
2022/03/26 05:56:40;;;;;;;30.48;15.68;;;11.10;47.60;;;;;;5052977;28;20025;-72
2022/03/26 05:59:09;;;;;;;32.53;16.38;;;11.10;47.70;;;;;;5052820;28;20033;-72
2022/03/26 06:01:35;;;;;;;34.40;16.58;;;11.10;47.70;;;;;;5052836;28;20091;-72
2022/03/26 06:04:01;;;;;;;27.23;15.27;;;11.10;47.60;;;;;;5052705;28;20025;-72
2022/03/26 06:06:27;;;;;;;36.72;16.85;;;11.10;47.50;;;;;;5052598;28;20400;-72
2022/03/26 06:08:53;;;;;;;33.65;15.45;;;11.20;47.70;;;;;;5052688;28;20396;-72
2022/03/26 06:11:19;;;;;;;34.42;15.52;;;11.20;47.80;;;;;;5052303;28;20025;-72
2022/03/26 06:13:44;;;;;;;29.42;15.43;;;11.20;47.70;;;;;;5052419;28;20053;-72
2022/03/26 06:16:10;;;;;;;36.20;16.40;;;11.30;47.50;;;;;;5052706;28;20028;-72
2022/03/26 06:18:36;;;;;;;37.45;16.45;;;11.30;47.60;;;;;;5034428;28;20052;-72
2022/03/26 06:21:05;;;;;;;38.83;18.13;;;11.30;49.60;;;;;;5052411;28;20025;-72
2022/03/26 06:23:31;;;;;;;36.60;17.88;;;11.30;50.00;;;;;;5052436;28;20037;-73
2022/03/26 06:25:57;;;;;;;36.53;16.90;;;11.30;51.30;;;;;;5052235;28;20503;-73
2022/03/26 06:28:23;;;;;;;37.10;17.38;;;11.30;51.80;;;;;;5034113;28;20029;-73
2022/03/26 06:30:50;;;;;;;39.72;18.45;;;11.30;53.40;;;;;;5052241;28;20063;-73
2022/03/26 06:33:17;;;;;;;42.15;18.63;;;11.30;53.80;;;;;;5051819;28;20033;-73
2022/03/26 06:35:44;;;;;;;35.90;17.27;;;11.30;54.30;;;;;;5052105;28;20028;-73
2022/03/26 06:38:10;;;;;;;28.15;15.15;;;11.40;52.10;;;;;;5034010;28;20028;-73
2022/03/26 06:40:38;;;;;;;29.40;15.70;;;11.40;51.40;;;;;;5051911;28;20055;-72
2022/03/26 06:43:04;;;;;;;36.83;17.30;;;11.50;51.70;;;;;;5034012;28;20056;-73
2022/03/26 06:45:30;;;;;;;41.25;17.52;;;11.50;51.70;;;;;;5051921;28;20025;-73
2022/03/26 06:47:57;;;;;;;31.70;16.90;;;11.50;51.80;;;;;;5051711;28;20024;-73
2022/03/26 06:50:23;;;;;;;34.88;16.83;;;11.60;51.50;;;;;;5051925;28;20029;-73
2022/03/26 06:52:49;;;;;;;36.00;15.50;;;11.60;50.40;;;;;;5051521;28;20156;-73
2022/03/26 06:55:15;;;;;;;33.72;15.88;;;11.70;50.70;;;;;;5051694;28;20449;-72
2022/03/26 06:57:43;;;;;;;37.15;17.23;;;11.70;51.20;;;;;;5053808;28;20021;-73
2022/03/26 07:00:11;;;;;;;34.22;16.98;;;11.70;51.40;;;;;;5033724;28;20455;-72
2022/03/26 07:02:37;;;;;;;35.92;16.17;;;11.80;51.20;;;;;;5051395;28;20396;-73
2022/03/26 07:05:06;;;;;;;31.17;15.38;;;11.90;50.60;;;;;;5051674;28;20071;-73
2022/03/26 07:07:32;;;;;;;35.05;15.95;;;11.90;51.50;;;;;;5033542;28;20029;-72
2022/03/26 07:09:58;;;;;;;28.42;14.77;;;11.90;52.10;;;;;;5051509;28;20058;-72
2022/03/26 07:12:24;;;;;;;30.75;14.75;;;11.90;51.40;;;;;;5051339;28;20021;-73
2022/03/26 07:14:50;;;;;;;30.23;14.65;;;12.00;51.40;;;;;;5051470;28;20484;-72
2022/03/26 07:17:16;;;;;;;31.98;15.00;;;12.00;51.00;;;;;;5050693;28;20017;-72
2022/03/26 07:19:42;;;;;;;31.52;15.38;;;12.10;50.90;;;;;;5051401;28;20124;-72
2022/03/26 07:22:08;;;;;;;39.53;16.73;;;12.10;50.10;;;;;;5049643;28;20064;-72
2022/03/26 07:24:34;;;;;;;35.30;16.25;;;12.10;50.90;;;;;;5049649;28;20053;-73
2022/03/26 07:27:00;;;;;;;34.80;16.73;;;12.20;52.20;;;;;;5049299;28;20103;-73
2022/03/26 07:29:25;;;;;;;31.13;15.63;;;12.20;52.80;;;;;;5031689;28;20460;-72
2022/03/26 07:31:51;;;;;;;38.65;17.63;;;12.30;51.90;;;;;;5049332;28;20036;-72
2022/03/26 07:34:17;;;;;;;37.05;16.02;;;12.30;51.80;;;;;;5049195;28;20055;-72
2022/03/26 07:36:44;;;;;;;35.13;16.60;;;12.30;51.30;;;;;;5049762;28;20535;-73
2022/03/26 07:39:10;;;;;;;34.70;16.77;;;12.40;51.80;;;;;;5033493;28;20028;-72
2022/03/26 07:41:36;;;;;;;36.08;16.52;;;12.40;52.00;;;;;;5033252;28;20072;-73
2022/03/26 07:44:02;;;;;;;36.90;17.13;;;12.40;51.10;;;;;;5033158;28;20064;-72
2022/03/26 07:46:27;;;;;;;38.38;17.05;;;12.40;51.20;;;;;;5051329;28;20025;-72
2022/03/26 07:48:53;;;;;;;36.30;16.58;;;12.50;51.50;;;;;;5050991;28;20025;-72
2022/03/26 07:51:19;;;;;;;33.45;16.38;;;12.50;52.60;;;;;;5051157;28;20460;-72
2022/03/26 07:53:45;;;;;;;40.42;17.13;;;12.60;53.10;;;;;;5051035;28;20033;-72
2022/03/26 07:56:10;;;;;;;34.95;17.67;;;12.60;53.70;;;;;;5033110;28;20074;-72
2022/03/26 07:58:36;;;;;;;35.92;17.13;;;12.70;53.60;;;;;;5051073;28;20159;-73
2022/03/26 08:01:02;;;;;;;40.70;17.23;;;12.70;53.10;;;;;;5033639;28;20472;-72
2022/03/26 08:03:28;;;;;;;33.85;17.35;;;12.80;52.90;;;;;;5052071;28;20059;-73
2022/03/26 08:05:54;;;;;;;36.90;17.38;;;12.80;52.80;;;;;;5051835;28;20100;-73
2022/03/26 08:08:19;;;;;;;39.97;18.85;;;12.90;52.50;;;;;;5052132;28;20037;-72
2022/03/26 08:10:45;;;;;;;42.25;18.75;;;13.00;49.90;;;;;;5034212;28;20052;-72
2022/03/26 08:13:11;;;;;;;40.72;19.23;;;13.10;50.10;;;;;;5051809;28;20025;-72
2022/03/26 08:15:37;;;;;;;42.45;18.90;;;13.20;49.00;;;;;;5052098;28;20038;-73
2022/03/26 08:18:03;;;;;;;38.65;18.58;;;13.20;48.70;;;;;;5034171;28;20526;-72
2022/03/26 08:20:32;;;;;;;39.85;19.58;;;13.20;48.80;;;;;;5051851;28;20017;-72
2022/03/26 08:22:58;;;;;;;43.17;18.23;;;13.30;49.00;;;;;;5052194;28;20449;-73
2022/03/26 08:28:09;;;;;;;40.90;19.10;;;13.30;49.20;;;;;;5052238;28;20035;-73
2022/03/26 08:30:35;;;;;;;46.35;20.85;;;13.40;48.10;;;;;;5033841;28;20025;-72
2022/03/26 08:33:02;;;;;;;43.63;19.73;;;13.60;47.80;;;;;;5051829;28;20112;-73
2022/03/26 08:35:35;;;;;;;43.72;19.73;;;13.80;49.00;;;;;;5037341;28;20029;-72
2022/03/26 08:38:02;;;;;;;50.45;21.65;;;13.80;50.10;;;;;;5055365;28;20104;-73
2022/03/26 08:40:28;;;;;;;49.97;22.75;;;14.10;48.20;;;;;;5055536;28;20045;-72
2022/03/26 08:42:56;;;;;;;49.42;21.83;;;14.30;46.90;;;;;;5037449;28;20035;-72
2022/03/26 08:45:22;;;;;;;47.78;22.98;;;14.20;47.70;;;;;;5055788;28;20032;-73
2022/03/26 08:47:48;;;;;;;45.00;21.20;;;14.20;47.90;;;;;;5037422;28;20372;-72
2022/03/26 08:50:14;;;;;;;45.58;20.35;;;14.60;48.60;;;;;;5037398;28;20036;-72
2022/03/26 08:52:39;;;;;;;45.17;21.52;;;14.60;48.00;;;;;;5055200;28;20029;-72
2022/03/26 08:55:08;;;;;;;44.75;21.90;;;14.70;47.90;;;;;;5055171;28;20021;-72
2022/03/26 08:57:34;;;;;;;43.08;20.58;;;14.70;46.10;;;;;;5053813;28;20028;-73
2022/03/26 09:00:00;;;;;;;48.65;21.80;;;14.90;44.30;;;;;;5075433;28;20025;-73
2022/03/26 09:02:25;;;;;;;49.33;21.73;;;14.90;44.70;;;;;;5038738;28;20021;-72
2022/03/26 09:04:52;;;;;;;44.15;19.92;;;15.00;44.10;;;;;;5035357;28;20036;-72
2022/03/26 09:07:18;;;;;;;46.97;21.42;;;15.20;44.80;;;;;;5035168;28;20018;-72
2022/03/26 09:09:44;;;;;;;50.88;21.27;;;15.20;43.40;;;;;;5047897;28;20021;-73
2022/03/26 09:12:09;;;;;;;44.53;20.17;;;15.20;44.10;;;;;;5036879;28;20033;-73
2022/03/26 09:14:35;;;;;;;45.67;19.92;;;15.20;45.40;;;;;;5053398;28;20017;-73
2022/03/26 09:17:01;;;;;;;41.58;19.70;;;15.20;44.70;;;;;;5054240;28;20474;-73
2022/03/26 09:19:27;;;;;;;42.85;20.63;;;15.20;45.00;;;;;;5054462;28;20028;-72
2022/03/26 09:21:52;;;;;;;47.05;20.95;;;15.30;46.40;;;;;;5054413;28;20032;-72
2022/03/26 09:24:18;;;;;;;45.97;18.85;;;15.30;46.40;;;;;;5036516;28;20052;-72
2022/03/26 09:26:44;;;;;;;42.97;19.70;;;15.30;46.10;;;;;;5054150;28;20061;-73
2022/03/26 09:29:10;;;;;;;47.08;20.73;;;15.30;45.60;;;;;;5036744;28;20433;-72
2022/03/26 09:31:35;;;;;;;41.03;20.70;;;15.50;45.50;;;;;;5053962;28;20028;-72
2022/03/26 09:34:01;;;;;;;51.03;22.58;;;15.50;46.10;;;;;;5053108;28;20048;-73
2022/03/26 09:36:27;;;;;;;50.15;22.90;;;15.70;46.00;;;;;;5053141;28;20029;-72
2022/03/26 09:38:53;;;;;;;42.72;20.30;;;15.80;45.00;;;;;;5052988;28;20556;-73
2022/03/26 09:41:25;;;;;;;51.45;21.70;;;15.70;45.00;;;;;;5052878;28;20543;-72
2022/03/26 09:43:52;;;;;;;50.88;22.48;;;15.60;45.40;;;;;;5033492;28;20036;-73
2022/03/26 09:46:18;;;;;;;50.80;22.40;;;15.60;46.60;;;;;;5033286;28;20028;-72
2022/03/26 09:48:44;;;;;;;48.55;21.88;;;15.60;46.90;;;;;;5052612;28;20021;-73
2022/03/26 09:51:15;;;;;;;52.45;21.35;;;15.60;46.50;;;;;;5052914;28;20025;-73
2022/03/26 09:53:41;;;;;;;48.90;22.00;;;15.60;45.80;;;;;;5052998;28;20025;-72
2022/03/26 09:56:07;;;;;;;50.40;21.95;;;15.90;46.30;;;;;;5052899;28;20100;-72
2022/03/26 09:58:33;;;;;;;47.55;23.35;;;15.90;46.20;;;;;;5034667;28;20473;-72
2022/03/26 10:00:59;;;;;;;48.75;21.60;;;16.00;45.70;;;;;;5053062;28;20029;-77
2022/03/26 10:03:25;;;;;;;42.85;22.55;;;16.00;44.90;;;;;;5052934;28;20076;-78
2022/03/26 10:06:02;;;;;;;41.63;22.08;;;16.00;45.20;;;;;;5053005;28;20021;-77
2022/03/26 10:08:28;;;;;;;48.22;23.45;;;16.20;46.00;;;;;;5051070;28;20491;-72
2022/03/26 10:10:54;;;;;;;57.78;23.88;;;16.20;44.50;;;;;;5051469;28;20060;-73
2022/03/26 10:13:40;;;;;;;57.10;23.67;;;16.20;45.40;;;;;;5051938;28;20064;-73
2022/03/26 10:16:11;;;;;;;47.95;23.02;;;16.20;45.70;;;;;;5050381;28;20022;-72
2022/03/26 10:18:45;;;;;;;50.65;23.05;;;16.20;45.40;;;;;;5049927;28;20230;-73
2022/03/26 10:21:18;;;;;;;50.47;24.50;;;16.40;45.60;;;;;;5049934;28;20039;-73
2022/03/26 10:23:46;;;;;;;49.95;23.80;;;16.50;45.10;;;;;;5050326;28;20042;-73
2022/03/26 10:26:14;;;;;;;53.78;25.08;;;16.60;44.80;;;;;;5050570;28;20029;-73
2022/03/26 10:28:41;;;;;;;49.88;24.10;;;16.80;43.60;;;;;;5050328;28;20033;-73
2022/03/26 10:34:19;;;;;;;47.95;24.25;;;16.70;45.50;;;;;;5050503;28;20107;-73
2022/03/26 10:36:55;;;;;;;46.08;22.83;;;16.60;44.70;;;;;;5050044;28;20104;-72
2022/03/26 10:39:26;;;;;;;47.20;23.63;;;16.80;47.00;;;;;;5032657;28;20033;-73
2022/03/26 10:41:54;;;;;;;53.38;23.38;;;16.90;48.30;;;;;;5051546;28;20049;-72
2022/03/26 10:44:24;;;;;;;49.60;23.27;;;17.00;47.00;;;;;;5052212;28;20091;-73
2022/03/26 10:46:55;;;;;;;44.10;23.20;;;17.10;47.40;;;;;;5051941;28;20051;-72
2022/03/26 10:49:36;;;;;;;53.03;24.40;;;17.40;45.30;;;;;;5034246;28;20025;-73
2022/03/26 10:52:11;;;;;;;49.57;24.33;;;17.50;44.30;;;;;;5034163;28;20071;-72
2022/03/26 10:54:37;;;;;;;47.78;22.02;;;17.50;43.20;;;;;;5051743;28;20286;-72
2022/03/26 10:57:05;;;;;;;49.33;22.25;;;17.50;43.80;;;;;;5050976;28;20060;-72
2022/03/26 10:59:31;;;;;;;50.33;23.33;;;17.80;44.30;;;;;;5033812;28;20044;-72
2022/03/26 11:01:58;;;;;;;45.17;21.92;;;17.80;42.40;;;;;;5053781;28;20029;-72
2022/03/26 11:04:28;;;;;;;47.47;22.70;;;17.90;43.30;;;;;;5050732;28;20024;-72
2022/03/26 11:06:56;;;;;;;49.50;22.85;;;17.90;43.70;;;;;;5051908;28;20028;-72
2022/03/26 11:09:22;;;;;;;51.97;24.20;;;17.90;43.00;;;;;;5033549;28;20028;-72
2022/03/26 11:11:51;;;;;;;45.28;22.85;;;18.00;42.20;;;;;;5051627;28;20040;-72
2022/03/26 11:14:18;;;;;;;47.47;23.85;;;18.00;42.40;;;;;;5051612;28;20021;-72
2022/03/26 11:16:59;;;;;;;40.08;20.33;;;18.30;42.40;;;;;;5033800;28;20033;-72
2022/03/26 11:19:53;;;;;;;59.63;21.58;;;18.40;41.30;;;;;;5051531;28;20090;-72
2022/03/26 11:22:48;;;;;;;45.90;22.38;;;18.40;40.30;;;;;;5020684;28;20120;-72
2022/03/26 11:25:51;;;;;;;39.58;20.88;;;18.40;40.90;;;;;;5051447;28;20023;-72
2022/03/26 11:28:26;;;;;;;47.28;23.30;;;18.40;41.00;;;;;;5051300;28;20021;-72
2022/03/26 11:31:19;;;;;;;47.45;22.55;;;18.40;41.30;;;;;;5051389;28;20099;-73
2022/03/26 11:33:48;;;;;;;37.20;19.27;;;18.50;43.00;;;;;;5050230;28;20564;-72
2022/03/26 11:36:18;;;;;;;36.75;18.73;;;18.80;42.50;;;;;;5051303;28;20096;-72
2022/03/26 11:38:55;;;;;;;38.33;20.17;;;19.20;40.50;;;;;;5050773;28;20021;-72
2022/03/26 11:41:33;;;;;;;41.42;21.40;;;19.20;40.00;;;;;;5047737;28;20033;-72
2022/03/26 11:44:01;;;;;;;33.80;19.60;;;19.30;39.40;;;;;;5050136;28;20449;-72
2022/03/26 11:52:30;;;;;;;41.80;21.00;;;19.60;39.60;;;;;;5038308;28;20113;-72
2022/03/26 11:55:15;;;;;;;41.67;21.58;;;19.70;39.00;;;;;;5044189;28;20036;-73
2022/03/26 11:57:41;;;;;;;43.25;21.27;;;19.60;37.80;;;;;;5050858;28;20021;-73
2022/03/26 12:00:21;;;;;;;41.67;21.42;;;19.60;38.00;;;;;;5029690;28;20025;-73
2022/03/26 12:02:51;;;;;;;45.03;22.90;;;19.70;38.40;;;;;;5050564;28;20025;-73
2022/03/26 12:08:17;;;;;;;50.42;24.63;;;20.00;38.90;;;;;;5050216;28;20507;-73
2022/03/26 12:10:44;;;;;;;46.83;24.55;;;20.10;39.10;;;;;;5055038;28;20021;-73
2022/03/26 12:13:10;;;;;;;52.33;25.67;;;20.10;38.60;;;;;;5033216;28;20033;-72
2022/03/26 12:15:36;;;;;;;56.75;25.13;;;20.00;38.40;;;;;;5030784;28;20756;-73
2022/03/26 12:18:13;;;;;;;54.42;25.35;;;20.00;38.10;;;;;;5054613;28;20021;-73
2022/03/26 12:20:40;;;;;;;51.72;25.88;;;20.10;38.70;;;;;;5054719;28;20017;-73
2022/03/26 12:23:15;;;;;;;55.35;25.67;;;20.20;38.60;;;;;;5054815;28;20032;-73
2022/03/26 12:25:51;;;;;;;48.83;24.27;;;20.10;38.40;;;;;;5054401;28;20504;-73
2022/03/26 12:28:25;;;;;;;50.13;24.98;;;20.20;37.80;;;;;;5051743;28;20078;-73
2022/03/26 12:30:56;;;;;;;44.53;23.55;;;20.30;37.80;;;;;;5048698;28;20043;-73
2022/03/26 12:33:23;;;;;;;45.33;23.10;;;20.40;37.60;;;;;;5051316;28;20032;-73
2022/03/26 12:35:52;;;;;;;50.88;25.02;;;20.50;37.80;;;;;;5054345;28;20021;-73
2022/03/26 12:38:19;;;;;;;46.67;23.23;;;20.50;37.80;;;;;;5032848;28;20021;-73
2022/03/26 12:41:00;;;;;;;54.88;24.73;;;20.50;38.30;;;;;;5051186;28;20508;-73
2022/03/26 12:43:27;;;;;;;48.00;25.70;;;20.60;39.10;;;;;;5038878;28;20025;-73